Time;durP1;ratioP1;P1;durP2;ratioP2;P2;SDS_P1;SDS_P2;PMS_P1;PMS_P2;Temp;Humidity;BMP_temperature;BMP_pressure;BME280_temperature;BME280_humidity;BME280_pressure;Samples;Min_cycle;Max_cycle;Signal;HPM_P1;HPM_P2
2022/01/31 00:02:22;;;;;;;12.18;3.78;;;12.70;82.20;;;;;;5032420;28;20039;-66
2022/01/31 00:04:48;;;;;;;13.63;3.92;;;12.70;81.00;;;;;;5033788;28;20104;-67
2022/01/31 00:07:13;;;;;;;14.38;4.25;;;12.70;81.70;;;;;;5033535;28;20033;-67
2022/01/31 00:09:44;;;;;;;13.35;3.50;;;12.60;81.20;;;;;;5033659;28;20044;-65
2022/01/31 00:12:18;;;;;;;12.98;3.65;;;12.60;81.70;;;;;;5033339;28;20021;-67
2022/01/31 00:14:47;;;;;;;9.70;3.25;;;12.60;81.90;;;;;;5033790;28;20091;-67
2022/01/31 00:17:14;;;;;;;9.60;3.15;;;12.60;82.00;;;;;;5033172;28;20033;-67
2022/01/31 00:19:41;;;;;;;12.13;3.15;;;12.70;82.20;;;;;;5033481;28;20475;-67
2022/01/31 00:22:08;;;;;;;12.05;3.75;;;12.70;82.00;;;;;;5033033;28;20090;-67
2022/01/31 00:24:34;;;;;;;13.73;3.90;;;12.70;82.00;;;;;;5033624;28;20053;-67
2022/01/31 00:27:02;;;;;;;8.88;2.85;;;12.60;81.70;;;;;;5032978;28;20030;-67
2022/01/31 00:29:27;;;;;;;10.50;3.75;;;12.70;82.20;;;;;;5032210;28;20025;-67
2022/01/31 00:31:53;;;;;;;15.85;3.65;;;12.60;82.20;;;;;;5033229;28;20021;-66
2022/01/31 00:34:18;;;;;;;11.07;3.28;;;12.70;81.90;;;;;;5033257;28;20040;-67
2022/01/31 00:36:44;;;;;;;8.45;3.08;;;12.60;82.10;;;;;;5033572;28;20024;-67
2022/01/31 00:39:10;;;;;;;12.60;3.13;;;12.70;82.50;;;;;;5033165;28;20025;-66
2022/01/31 00:41:36;;;;;;;8.18;2.80;;;12.70;82.30;;;;;;5032802;28;20072;-66
2022/01/31 00:44:50;;;;;;;10.77;3.22;;;12.80;82.30;;;;;;5033201;28;20144;-67
2022/01/31 00:46:54;;;;;;;11.05;3.08;;;12.70;81.90;;;;;;5032650;28;20386;-67
2022/01/31 00:51:59;;;;;;;9.70;3.55;;;12.70;82.30;;;;;;5033393;28;20029;-66
2022/01/31 00:54:25;;;;;;;9.40;2.88;;;12.70;82.30;;;;;;5032984;28;20529;-66
2022/01/31 00:56:51;;;;;;;9.15;3.00;;;12.70;82.40;;;;;;5032690;28;20025;-67
2022/01/31 00:59:17;;;;;;;11.05;3.05;;;12.70;82.40;;;;;;5032991;28;20463;-67
2022/01/31 01:01:43;;;;;;;13.80;3.38;;;12.60;82.50;;;;;;5037157;28;20099;-65
2022/01/31 01:04:08;;;;;;;9.50;3.05;;;12.60;82.70;;;;;;5037027;28;20495;-67
2022/01/31 01:06:34;;;;;;;10.25;2.70;;;12.60;82.90;;;;;;5037184;28;20445;-67
2022/01/31 01:09:00;;;;;;;12.45;2.83;;;12.60;83.10;;;;;;5037004;28;20018;-66
2022/01/31 01:11:25;;;;;;;10.63;3.10;;;12.60;83.20;;;;;;5036688;28;20769;-67
2022/01/31 01:13:51;;;;;;;12.23;2.97;;;12.50;83.50;;;;;;5036829;28;20021;-66
2022/01/31 01:16:16;;;;;;;10.00;3.38;;;12.40;83.60;;;;;;5036962;28;20490;-65
2022/01/31 01:18:42;;;;;;;14.18;3.60;;;12.50;83.80;;;;;;5036597;28;20517;-64
2022/01/31 01:21:07;;;;;;;10.60;3.05;;;12.40;84.00;;;;;;5036847;28;20052;-67
2022/01/31 01:23:33;;;;;;;15.75;3.65;;;12.40;84.20;;;;;;5036579;28;20022;-65
2022/01/31 01:25:59;;;;;;;13.35;4.07;;;12.40;84.30;;;;;;5036765;28;20026;-64
2022/01/31 01:28:26;;;;;;;13.73;3.42;;;12.40;84.30;;;;;;5036697;28;20071;-67
2022/01/31 01:30:52;;;;;;;9.80;2.97;;;12.40;84.40;;;;;;5036911;28;20030;-71
2022/01/31 01:33:20;;;;;;;10.70;3.45;;;12.40;84.40;;;;;;5036618;28;20022;-67
2022/01/31 01:35:48;;;;;;;10.65;3.45;;;12.40;84.60;;;;;;5036641;28;20033;-67
2022/01/31 01:38:16;;;;;;;7.97;3.08;;;12.30;84.80;;;;;;5036570;28;20020;-67
2022/01/31 01:40:43;;;;;;;13.07;4.05;;;12.30;84.80;;;;;;5036067;28;20036;-67
2022/01/31 01:43:09;;;;;;;7.45;2.85;;;12.30;85.30;;;;;;5036309;28;20455;-66
2022/01/31 01:45:35;;;;;;;9.90;2.63;;;12.40;85.10;;;;;;5036381;28;20075;-66
2022/01/31 01:48:01;;;;;;;14.40;3.40;;;12.30;85.20;;;;;;5036468;28;20026;-66
2022/01/31 01:50:27;;;;;;;9.35;2.72;;;12.30;85.40;;;;;;5036375;28;20044;-66
2022/01/31 01:52:53;;;;;;;9.23;2.80;;;12.30;85.70;;;;;;5036236;28;20029;-68
2022/01/31 01:55:19;;;;;;;10.63;2.67;;;12.30;85.40;;;;;;5035892;28;20029;-67
2022/01/31 01:57:46;;;;;;;9.23;3.03;;;12.40;85.30;;;;;;5036323;28;20064;-68
2022/01/31 02:00:18;;;;;;;7.93;2.85;;;12.40;85.30;;;;;;5035832;28;20482;-66
2022/01/31 02:02:45;;;;;;;10.18;2.47;;;12.30;85.50;;;;;;5036189;28;20026;-66
2022/01/31 02:05:12;;;;;;;7.25;2.25;;;12.30;86.00;;;;;;5035964;28;20021;-64
2022/01/31 02:07:38;;;;;;;7.63;2.50;;;12.30;86.00;;;;;;5036008;28;20068;-67
2022/01/31 02:10:06;;;;;;;7.30;2.10;;;12.30;86.00;;;;;;5035457;28;20482;-65
2022/01/31 02:13:03;;;;;;;7.80;2.17;;;12.30;86.10;;;;;;5036125;28;20024;-66
2022/01/31 02:15:28;;;;;;;7.97;2.30;;;12.30;86.50;;;;;;5035364;28;20038;-67
2022/01/31 02:17:54;;;;;;;8.43;2.38;;;12.30;86.30;;;;;;5035509;28;20038;-67
2022/01/31 02:20:19;;;;;;;6.40;2.20;;;12.30;86.70;;;;;;5035622;28;20040;-67
2022/01/31 02:22:46;;;;;;;4.70;1.75;;;12.20;87.60;;;;;;5035342;28;20029;-67
2022/01/31 02:25:12;;;;;;;6.68;2.25;;;12.20;87.40;;;;;;5035812;28;20022;-67
2022/01/31 02:27:39;;;;;;;7.63;2.50;;;12.20;87.30;;;;;;5035612;28;20025;-65
2022/01/31 02:30:10;;;;;;;8.30;3.15;;;12.20;87.60;;;;;;5035341;28;20036;-62
2022/01/31 02:32:36;;;;;;;5.10;2.15;;;12.10;88.80;;;;;;5035588;28;20022;-61
2022/01/31 02:35:02;;;;;;;6.03;2.20;;;12.10;88.60;;;;;;5035296;28;20091;-64
2022/01/31 02:37:28;;;;;;;12.00;3.45;;;12.00;89.20;;;;;;5035410;28;20045;-65
2022/01/31 02:39:53;;;;;;;6.53;3.00;;;12.00;89.70;;;;;;5035239;28;20022;-66
2022/01/31 02:42:19;;;;;;;9.07;3.05;;;12.00;89.60;;;;;;5035362;28;20041;-66
2022/01/31 02:44:45;;;;;;;14.45;4.57;;;12.00;89.90;;;;;;5035351;28;20025;-67
2022/01/31 02:47:21;;;;;;;12.02;4.28;;;12.00;89.80;;;;;;5035158;28;20037;-66
2022/01/31 02:49:51;;;;;;;10.30;3.30;;;12.00;89.70;;;;;;5035362;28;20129;-67
2022/01/31 02:52:18;;;;;;;11.02;4.05;;;11.90;90.00;;;;;;5035032;28;20025;-67
2022/01/31 02:54:44;;;;;;;12.82;3.10;;;12.00;90.00;;;;;;5035260;28;20041;-65
2022/01/31 02:57:09;;;;;;;13.80;3.00;;;11.90;90.10;;;;;;5034852;28;20017;-66
2022/01/31 02:59:35;;;;;;;8.52;2.50;;;11.90;90.10;;;;;;5035182;28;20415;-66
2022/01/31 03:02:01;;;;;;;8.82;2.15;;;11.90;90.00;;;;;;5034573;28;20034;-65
2022/01/31 03:04:26;;;;;;;13.07;2.17;;;11.90;89.60;;;;;;5035156;28;20029;-67
2022/01/31 03:06:53;;;;;;;11.93;2.92;;;11.90;89.40;;;;;;5034405;28;20459;-64
2022/01/31 03:09:19;;;;;;;8.77;1.88;;;11.90;89.30;;;;;;5035110;28;20028;-67
2022/01/31 03:11:45;;;;;;;9.70;1.85;;;11.90;89.00;;;;;;5034806;28;20538;-67
2022/01/31 03:14:10;;;;;;;12.80;2.22;;;11.90;88.50;;;;;;5034708;28;20092;-67
2022/01/31 03:16:40;;;;;;;10.40;2.55;;;11.90;88.40;;;;;;5034446;28;20022;-66
2022/01/31 03:19:07;;;;;;;11.75;2.22;;;11.80;88.40;;;;;;5034642;28;20032;-66
2022/01/31 03:21:33;;;;;;;12.20;1.80;;;11.80;88.90;;;;;;5034331;28;20034;-65
2022/01/31 03:23:59;;;;;;;13.50;2.50;;;11.80;88.60;;;;;;5034097;28;20183;-66
2022/01/31 03:26:24;;;;;;;12.77;2.67;;;11.80;88.60;;;;;;5034464;28;20048;-66
2022/01/31 03:28:52;;;;;;;7.78;2.03;;;11.80;88.50;;;;;;5034903;28;20076;-66
2022/01/31 03:31:18;;;;;;;6.43;1.30;;;11.80;88.20;;;;;;5052705;28;20027;-67
2022/01/31 03:33:46;;;;;;;12.32;2.13;;;11.90;88.10;;;;;;5047996;28;20031;-66
2022/01/31 03:36:11;;;;;;;8.23;2.28;;;11.90;87.70;;;;;;5033925;28;20029;-65
2022/01/31 03:38:40;;;;;;;9.98;2.20;;;11.80;87.60;;;;;;5033990;28;20101;-66
2022/01/31 03:41:14;;;;;;;13.48;2.20;;;11.80;87.00;;;;;;5034068;28;20034;-66
2022/01/31 03:43:40;;;;;;;8.82;1.90;;;11.80;87.30;;;;;;5049251;28;20028;-64
2022/01/31 03:46:05;;;;;;;7.25;2.17;;;11.80;87.50;;;;;;5044446;28;20032;-63
2022/01/31 03:48:32;;;;;;;9.18;2.40;;;11.80;86.70;;;;;;5041179;28;20462;-66
2022/01/31 03:51:00;;;;;;;8.02;2.03;;;11.80;86.40;;;;;;5073603;28;20466;-66
2022/01/31 03:53:25;;;;;;;8.40;1.70;;;11.80;86.30;;;;;;5073687;28;20024;-66
2022/01/31 03:55:51;;;;;;;8.55;2.10;;;11.80;86.20;;;;;;5073919;28;20461;-66
2022/01/31 03:58:17;;;;;;;11.68;2.38;;;11.80;86.20;;;;;;5073711;28;20477;-67
2022/01/31 04:00:43;;;;;;;10.40;1.70;;;11.80;86.50;;;;;;5073446;28;20048;-65
2022/01/31 04:03:09;;;;;;;10.18;2.17;;;11.80;85.50;;;;;;5073546;28;20017;-66
2022/01/31 04:05:37;;;;;;;10.93;1.95;;;11.70;85.40;;;;;;5073376;28;20055;-67
2022/01/31 04:08:03;;;;;;;8.95;2.00;;;11.70;85.70;;;;;;5073734;28;20051;-66
2022/01/31 04:10:29;;;;;;;10.82;2.95;;;11.70;85.60;;;;;;5073518;28;20476;-64
2022/01/31 04:12:54;;;;;;;9.75;2.63;;;11.70;85.40;;;;;;5073504;28;20028;-67
2022/01/31 04:15:20;;;;;;;10.73;2.22;;;11.70;84.90;;;;;;5072102;28;20035;-66
2022/01/31 04:17:46;;;;;;;8.38;2.22;;;11.60;84.80;;;;;;5073321;28;20032;-66
2022/01/31 04:20:12;;;;;;;12.38;2.28;;;11.60;84.10;;;;;;5073272;28;20031;-66
2022/01/31 04:22:45;;;;;;;18.23;3.97;;;11.50;84.30;;;;;;5073383;28;20063;-66
2022/01/31 04:25:27;;;;;;;13.95;2.45;;;11.60;83.60;;;;;;5073393;28;20091;-65
2022/01/31 04:28:01;;;;;;;10.10;2.58;;;11.50;83.10;;;;;;5073532;28;20032;-66
2022/01/31 04:30:27;;;;;;;9.50;2.60;;;11.60;82.30;;;;;;5073453;28;20051;-65
2022/01/31 04:32:53;;;;;;;9.63;2.42;;;11.50;82.30;;;;;;5071976;28;20461;-66
2022/01/31 04:35:18;;;;;;;11.93;2.65;;;11.50;82.10;;;;;;5072159;28;20056;-66
2022/01/31 04:37:44;;;;;;;11.07;2.22;;;11.40;82.60;;;;;;5073082;28;20063;-65
2022/01/31 04:40:13;;;;;;;9.90;2.08;;;11.40;82.70;;;;;;5073155;28;20026;-66
2022/01/31 04:42:42;;;;;;;9.07;1.73;;;11.40;82.70;;;;;;5072875;28;20401;-66
2022/01/31 04:45:08;;;;;;;12.02;2.53;;;11.50;83.00;;;;;;5073191;28;20100;-65
2022/01/31 04:47:34;;;;;;;8.63;1.95;;;11.40;83.30;;;;;;5072938;28;20025;-66
2022/01/31 04:49:59;;;;;;;8.82;2.30;;;11.50;83.10;;;;;;5072787;28;20097;-65
2022/01/31 04:52:25;;;;;;;9.93;1.63;;;11.40;83.40;;;;;;5072807;28;20029;-65
2022/01/31 04:54:50;;;;;;;9.15;1.83;;;11.50;83.70;;;;;;5073266;28;20017;-66
2022/01/31 04:57:17;;;;;;;11.75;2.10;;;11.40;83.30;;;;;;5073188;28;20096;-65
2022/01/31 04:59:43;;;;;;;11.15;2.40;;;11.40;83.20;;;;;;5073023;28;20386;-65
2022/01/31 05:02:10;;;;;;;13.45;2.58;;;11.40;83.00;;;;;;5072485;28;20508;-65
2022/01/31 05:04:35;;;;;;;12.25;2.20;;;11.40;84.10;;;;;;5072835;28;20016;-65
2022/01/31 05:07:01;;;;;;;11.32;1.70;;;11.40;83.20;;;;;;5072715;28;20043;-65
2022/01/31 05:09:26;;;;;;;8.93;1.83;;;11.30;82.70;;;;;;5072839;28;20032;-65
2022/01/31 05:11:52;;;;;;;11.07;2.33;;;11.30;83.10;;;;;;5072833;28;20370;-65
2022/01/31 05:14:18;;;;;;;9.70;1.85;;;11.30;82.60;;;;;;5072972;28;20050;-65
2022/01/31 05:16:44;;;;;;;10.10;2.35;;;11.30;83.00;;;;;;5072363;28;20021;-66
2022/01/31 05:19:09;;;;;;;12.45;3.35;;;11.30;83.10;;;;;;5072651;28;20465;-66
2022/01/31 05:21:35;;;;;;;10.45;2.33;;;11.30;82.80;;;;;;5072771;28;20036;-65
2022/01/31 05:24:02;;;;;;;10.60;2.30;;;11.30;82.80;;;;;;5072723;28;20025;-65
2022/01/31 05:26:27;;;;;;;10.05;2.53;;;11.30;83.10;;;;;;5072642;28;20017;-66
2022/01/31 05:28:53;;;;;;;10.90;2.60;;;11.30;82.80;;;;;;5072721;28;20025;-66
2022/01/31 05:31:19;;;;;;;9.90;2.20;;;11.30;82.70;;;;;;5072310;28;20222;-66
2022/01/31 05:33:44;;;;;;;12.32;2.85;;;11.20;82.50;;;;;;5072737;28;20454;-66
2022/01/31 05:36:10;;;;;;;8.73;2.25;;;11.20;82.40;;;;;;5072781;28;20039;-65
2022/01/31 05:38:38;;;;;;;15.88;2.97;;;11.20;82.70;;;;;;5072661;28;20082;-66
2022/01/31 05:41:07;;;;;;;16.15;3.17;;;11.20;82.90;;;;;;5072673;28;20104;-65
2022/01/31 05:43:32;;;;;;;12.80;2.75;;;11.20;82.10;;;;;;5072496;28;20377;-65
2022/01/31 05:45:58;;;;;;;14.02;2.97;;;11.30;81.90;;;;;;5073482;28;20024;-65
2022/01/31 05:48:24;;;;;;;16.00;2.95;;;11.10;82.00;;;;;;5076385;28;20029;-67
2022/01/31 05:50:49;;;;;;;16.00;2.55;;;11.20;82.00;;;;;;5076112;28;20020;-65
2022/01/31 05:53:15;;;;;;;14.32;2.67;;;11.20;81.30;;;;;;5076129;28;20028;-66
2022/01/31 05:55:40;;;;;;;17.63;3.22;;;11.10;81.90;;;;;;5074939;28;20016;-66
2022/01/31 05:58:07;;;;;;;9.95;2.40;;;11.10;82.60;;;;;;5076047;28;20029;-66
2022/01/31 06:00:33;;;;;;;18.40;2.47;;;11.10;83.30;;;;;;5067874;28;20017;-66
2022/01/31 06:02:59;;;;;;;9.30;2.30;;;11.10;83.10;;;;;;5040199;28;20083;-65
2022/01/31 06:05:25;;;;;;;15.07;2.92;;;11.20;83.10;;;;;;5035359;28;20080;-65
2022/01/31 06:07:51;;;;;;;12.75;3.00;;;11.20;82.50;;;;;;5036299;28;20014;-66
2022/01/31 06:10:17;;;;;;;16.75;2.60;;;11.10;82.60;;;;;;5035478;28;20036;-66
2022/01/31 06:12:42;;;;;;;13.00;2.58;;;11.20;82.80;;;;;;5036028;28;20014;-65
2022/01/31 06:15:08;;;;;;;10.98;2.03;;;11.20;83.60;;;;;;5035502;28;20379;-67
2022/01/31 06:17:34;;;;;;;12.00;2.70;;;11.20;83.80;;;;;;5035858;28;20033;-66
2022/01/31 06:20:00;;;;;;;12.93;3.13;;;11.20;82.50;;;;;;5035563;28;20029;-67
2022/01/31 06:22:25;;;;;;;16.35;2.78;;;11.20;82.20;;;;;;5036291;28;20562;-65
2022/01/31 06:24:51;;;;;;;14.15;2.58;;;11.20;81.60;;;;;;5042188;28;20455;-67
2022/01/31 06:27:16;;;;;;;17.95;2.88;;;11.20;82.70;;;;;;5039273;28;20470;-62
2022/01/31 06:29:42;;;;;;;17.70;3.00;;;11.20;81.70;;;;;;5037791;28;20025;-61
2022/01/31 06:32:08;;;;;;;13.82;3.03;;;11.10;81.40;;;;;;5043479;28;20021;-67
2022/01/31 06:34:34;;;;;;;17.30;3.50;;;11.20;80.90;;;;;;5044576;28;20064;-62
2022/01/31 06:37:02;;;;;;;13.98;2.55;;;11.20;80.70;;;;;;5041166;28;20422;-69
2022/01/31 06:39:29;;;;;;;14.18;3.50;;;11.10;80.80;;;;;;5043441;28;20036;-67
2022/01/31 06:41:54;;;;;;;12.25;2.78;;;11.10;81.10;;;;;;5043306;28;20029;-67
2022/01/31 06:44:20;;;;;;;16.65;3.08;;;11.00;81.20;;;;;;5040108;28;20116;-68
2022/01/31 06:46:46;;;;;;;13.68;2.67;;;11.00;81.60;;;;;;5041313;28;20478;-61
2022/01/31 06:49:11;;;;;;;13.23;2.85;;;11.00;81.50;;;;;;5049960;28;20425;-67
2022/01/31 06:51:37;;;;;;;19.42;3.42;;;10.90;82.60;;;;;;5042436;28;20045;-68
2022/01/31 06:54:03;;;;;;;12.23;2.60;;;11.00;81.40;;;;;;5039029;28;20061;-68
2022/01/31 06:56:30;;;;;;;12.18;3.03;;;11.00;81.20;;;;;;5039785;28;20162;-67
2022/01/31 06:59:01;;;;;;;16.90;3.05;;;10.90;81.00;;;;;;5047740;28;20017;-64
2022/01/31 07:01:27;;;;;;;12.80;2.60;;;10.90;81.50;;;;;;5045034;28;20413;-66
2022/01/31 07:03:54;;;;;;;15.30;2.35;;;10.90;81.60;;;;;;5038583;28;20070;-67
2022/01/31 07:06:20;;;;;;;13.48;2.83;;;10.90;85.20;;;;;;5048562;28;20380;-68
2022/01/31 07:08:46;;;;;;;14.10;2.83;;;11.10;82.00;;;;;;5052639;28;20032;-65
2022/01/31 07:11:16;;;;;;;14.88;2.95;;;11.00;81.70;;;;;;5038145;28;20033;-69
2022/01/31 07:13:43;;;;;;;13.68;2.78;;;11.00;81.30;;;;;;5047716;28;20022;-69
2022/01/31 07:16:09;;;;;;;13.05;2.30;;;11.10;80.60;;;;;;5034290;28;20030;-68
2022/01/31 07:18:36;;;;;;;12.82;2.47;;;11.10;81.10;;;;;;5034258;28;20037;-70
2022/01/31 07:21:02;;;;;;;12.95;2.22;;;11.10;81.80;;;;;;5034218;28;20505;-69
2022/01/31 07:23:39;;;;;;;12.43;2.63;;;11.10;81.80;;;;;;5050385;28;20025;-68
2022/01/31 07:26:04;;;;;;;14.27;3.35;;;11.10;82.20;;;;;;5053564;28;20033;-61
2022/01/31 07:28:30;;;;;;;13.10;2.58;;;11.10;80.80;;;;;;5054187;28;20017;-63
2022/01/31 07:30:57;;;;;;;8.82;2.63;;;11.10;80.80;;;;;;5045070;28;20096;-63
2022/01/31 07:33:23;;;;;;;15.07;2.67;;;11.10;81.40;;;;;;5040387;28;20517;-61
2022/01/31 07:35:49;;;;;;;14.65;2.88;;;11.10;81.00;;;;;;5043716;28;20108;-62
2022/01/31 07:38:16;;;;;;;12.75;3.80;;;11.10;81.10;;;;;;5041854;28;20029;-61
2022/01/31 07:40:42;;;;;;;12.63;3.00;;;11.20;80.60;;;;;;5034082;28;20040;-62
2022/01/31 07:43:08;;;;;;;12.70;2.88;;;11.20;81.20;;;;;;5033858;28;20537;-69
2022/01/31 07:45:34;;;;;;;14.82;2.78;;;11.20;80.00;;;;;;5034050;28;20029;-63
2022/01/31 07:48:00;;;;;;;11.43;2.42;;;11.20;79.30;;;;;;5034228;28;20026;-61
2022/01/31 07:50:26;;;;;;;18.85;4.65;;;11.20;79.10;;;;;;5038647;28;20473;-61
2022/01/31 07:52:51;;;;;;;10.73;2.08;;;11.10;79.30;;;;;;5045296;28;20040;-62
2022/01/31 07:55:17;;;;;;;17.20;2.80;;;11.10;80.90;;;;;;5053281;28;20363;-63
2022/01/31 07:57:46;;;;;;;17.13;3.53;;;11.10;79.50;;;;;;5053323;28;20028;-62
2022/01/31 08:00:13;;;;;;;16.85;3.65;;;11.10;79.80;;;;;;5053518;28;20063;-63
2022/01/31 08:02:39;;;;;;;11.88;2.58;;;11.10;79.40;;;;;;5053768;28;20063;-71
2022/01/31 08:05:07;;;;;;;15.77;3.80;;;11.10;80.00;;;;;;5053729;28;20013;-64
2022/01/31 08:07:33;;;;;;;11.23;2.72;;;11.20;79.60;;;;;;5037654;28;20029;-71
2022/01/31 08:10:01;;;;;;;18.13;4.68;;;11.20;79.20;;;;;;5042643;28;20528;-66
2022/01/31 08:12:26;;;;;;;18.15;3.58;;;11.20;78.50;;;;;;5052000;28;20029;-69
2022/01/31 08:14:52;;;;;;;13.77;3.15;;;11.10;78.30;;;;;;5044625;28;20121;-69
2022/01/31 08:17:18;;;;;;;13.98;3.50;;;11.10;78.50;;;;;;5051196;28;20060;-63
2022/01/31 08:19:44;;;;;;;17.88;3.78;;;11.10;78.70;;;;;;5053381;28;20108;-67
2022/01/31 08:22:10;;;;;;;12.48;3.03;;;11.10;78.30;;;;;;5053339;28;20104;-67
2022/01/31 08:24:35;;;;;;;19.13;4.35;;;11.00;80.30;;;;;;5047050;28;20026;-71
2022/01/31 08:27:01;;;;;;;17.50;3.53;;;11.10;78.60;;;;;;5032904;28;20029;-71
2022/01/31 08:29:34;;;;;;;18.45;4.35;;;11.20;77.90;;;;;;5035493;28;20115;-69
2022/01/31 08:32:05;;;;;;;15.25;3.30;;;11.10;77.80;;;;;;5051439;28;20040;-64
2022/01/31 08:37:15;;;;;;;14.85;3.50;;;11.10;78.30;;;;;;5043342;28;20513;-67
2022/01/31 08:39:42;;;;;;;13.93;4.05;;;11.10;77.90;;;;;;5035758;28;20029;-70
2022/01/31 08:42:08;;;;;;;18.73;3.60;;;11.10;77.80;;;;;;5033186;28;20128;-71
2022/01/31 08:44:34;;;;;;;16.80;3.28;;;11.10;77.40;;;;;;5033090;28;20451;-69
2022/01/31 08:47:00;;;;;;;12.00;2.83;;;11.10;77.90;;;;;;5047391;28;20087;-71
2022/01/31 08:49:25;;;;;;;17.75;3.67;;;11.00;78.00;;;;;;5051244;28;20028;-70
2022/01/31 08:51:51;;;;;;;13.75;3.42;;;11.10;78.20;;;;;;5052630;28;20032;-69
2022/01/31 08:54:16;;;;;;;12.68;2.97;;;11.10;78.20;;;;;;5052337;28;20466;-71
2022/01/31 08:56:47;;;;;;;16.80;3.15;;;11.10;78.00;;;;;;5046400;28;20022;-71
2022/01/31 08:59:18;;;;;;;15.27;3.42;;;11.10;78.40;;;;;;5043944;28;20102;-72
2022/01/31 09:01:52;;;;;;;18.50;3.60;;;11.10;77.70;;;;;;5049828;28;20179;-70
2022/01/31 09:04:32;;;;;;;14.40;3.00;;;11.20;78.60;;;;;;5052729;28;20139;-69
2022/01/31 09:06:58;;;;;;;16.95;3.45;;;11.20;78.30;;;;;;5046719;28;20033;-71
2022/01/31 09:09:24;;;;;;;12.95;2.97;;;11.20;78.10;;;;;;5050646;28;20048;-70
2022/01/31 09:11:49;;;;;;;16.20;3.50;;;11.20;77.70;;;;;;5052882;28;20394;-71
2022/01/31 09:14:15;;;;;;;20.30;4.68;;;11.20;77.90;;;;;;5052792;28;20019;-72
2022/01/31 09:16:41;;;;;;;14.13;3.30;;;11.10;77.60;;;;;;5052565;28;20025;-65
2022/01/31 09:19:07;;;;;;;15.93;3.05;;;11.10;78.20;;;;;;5036632;28;20492;-70
2022/01/31 09:21:34;;;;;;;12.13;2.90;;;11.20;77.20;;;;;;5034794;28;20041;-71
2022/01/31 09:23:59;;;;;;;19.30;4.03;;;11.30;76.80;;;;;;5035948;28;20022;-69
2022/01/31 09:26:26;;;;;;;17.38;4.75;;;11.20;76.50;;;;;;5036858;28;20095;-68
2022/01/31 09:28:52;;;;;;;14.70;3.50;;;11.20;76.40;;;;;;5036757;28;20049;-67
2022/01/31 09:31:20;;;;;;;17.35;3.70;;;11.20;76.20;;;;;;5036608;28;20520;-68
2022/01/31 09:33:46;;;;;;;15.52;3.63;;;11.20;75.80;;;;;;5052547;28;20033;-71
2022/01/31 09:36:12;;;;;;;12.35;2.65;;;11.20;76.20;;;;;;5055336;28;20021;-71
2022/01/31 09:38:37;;;;;;;16.70;3.63;;;11.20;77.10;;;;;;5056120;28;20021;-66
2022/01/31 09:41:03;;;;;;;13.60;3.13;;;11.10;80.10;;;;;;5056340;28;20480;-65
2022/01/31 09:48:48;;;;;;;16.25;2.83;;;11.10;83.00;;;;;;5056045;28;20025;-71
2022/01/31 09:51:19;;;;;;;13.43;2.63;;;11.10;82.40;;;;;;5056275;28;20037;-71
2022/01/31 09:53:50;;;;;;;13.05;3.38;;;11.10;81.70;;;;;;5053770;28;20078;-71
2022/01/31 09:56:21;;;;;;;15.90;2.87;;;11.10;81.60;;;;;;5056163;28;20108;-71
2022/01/31 09:58:48;;;;;;;11.10;3.00;;;11.10;82.60;;;;;;5056038;28;20029;-70
2022/01/31 10:01:16;;;;;;;12.30;3.42;;;11.20;82.20;;;;;;5056219;28;20033;-67
2022/01/31 10:03:50;;;;;;;15.00;3.22;;;11.20;81.80;;;;;;5041296;28;20018;-70
2022/01/31 10:06:28;;;;;;;19.48;3.63;;;11.20;82.40;;;;;;5035930;28;20104;-71
2022/01/31 10:09:05;;;;;;;20.10;4.38;;;11.20;81.40;;;;;;5035536;28;20037;-68
2022/01/31 10:11:39;;;;;;;16.85;3.10;;;11.30;80.20;;;;;;5037225;28;20036;-69
2022/01/31 10:17:30;;;;;;;13.07;3.03;;;11.20;80.90;;;;;;5043447;28;20151;-71
2022/01/31 10:20:00;;;;;;;20.70;4.00;;;11.30;78.90;;;;;;5055549;28;20032;-71
2022/01/31 10:22:28;;;;;;;20.27;3.88;;;11.30;79.00;;;;;;5055324;28;20398;-71
2022/01/31 10:24:56;;;;;;;18.95;4.47;;;11.30;78.50;;;;;;5055423;28;20035;-71
2022/01/31 10:27:29;;;;;;;19.30;3.70;;;11.30;78.90;;;;;;5047170;28;20068;-66
2022/01/31 10:29:55;;;;;;;;;;;11.30;78.50;;;;;;5035525;28;20021;-69
2022/01/31 10:32:34;;;;;;;21.50;4.35;;;11.30;77.90;;;;;;5034356;28;19913;-69
2022/01/31 10:35:02;;;;;;;21.50;4.40;;;11.20;78.40;;;;;;5037087;28;20107;-72
2022/01/31 10:37:31;;;;;;;15.57;3.92;;;11.10;79.90;;;;;;5035107;28;20057;-69
2022/01/31 10:57:01;;;;;;;19.05;3.83;;;11.20;77.70;;;;;;5023062;28;20045;-71
2022/01/31 10:59:39;;;;;;;26.02;5.40;;;11.20;77.70;;;;;;5048740;28;20060;-69
2022/01/31 11:02:15;;;;;;;21.73;4.65;;;11.20;77.40;;;;;;5036774;28;20041;-69
2022/01/31 11:04:42;;;;;;;22.88;5.15;;;11.20;77.70;;;;;;5034565;28;20021;-67
2022/01/31 11:07:13;;;;;;;19.63;4.30;;;11.30;77.80;;;;;;5034858;28;20044;-68
2022/01/31 11:09:40;;;;;;;16.65;4.53;;;11.30;77.20;;;;;;5034687;28;20033;-70
2022/01/31 11:12:07;;;;;;;27.08;5.60;;;11.20;78.30;;;;;;5043303;28;20028;-69
2022/01/31 11:14:38;;;;;;;18.08;3.90;;;11.30;77.20;;;;;;5050793;28;20025;-69
2022/01/31 11:17:10;;;;;;;22.95;4.65;;;11.30;76.60;;;;;;5042447;28;20087;-69
2022/01/31 11:19:36;;;;;;;24.88;4.38;;;11.30;77.40;;;;;;5044043;28;20466;-69
2022/01/31 11:22:07;;;;;;;22.80;4.90;;;11.20;77.60;;;;;;5037050;28;20048;-69
2022/01/31 11:24:46;;;;;;;17.00;4.07;;;11.30;77.50;;;;;;5045162;28;20071;-70
2022/01/31 11:27:15;;;;;;;23.55;4.35;;;11.20;78.00;;;;;;5054111;28;20109;-68
2022/01/31 11:29:46;;;;;;;13.50;4.00;;;11.20;77.90;;;;;;5054560;28;20092;-64
2022/01/31 11:32:13;;;;;;;16.30;3.42;;;11.30;79.30;;;;;;5042783;28;20032;-70
2022/01/31 11:34:42;;;;;;;13.18;3.00;;;11.30;78.00;;;;;;5034260;28;20018;-70
2022/01/31 11:37:10;;;;;;;16.35;3.17;;;11.40;77.90;;;;;;5034236;28;20019;-62
2022/01/31 11:39:41;;;;;;;12.82;3.33;;;11.40;77.80;;;;;;5032982;28;20398;-70
2022/01/31 11:42:07;;;;;;;15.45;3.95;;;11.30;77.20;;;;;;5035033;28;20117;-70
2022/01/31 11:44:33;;;;;;;15.50;3.90;;;11.40;76.90;;;;;;5036806;28;20028;-71
2022/01/31 11:47:03;;;;;;;15.60;3.78;;;11.30;76.80;;;;;;5049632;28;20033;-70
2022/01/31 11:49:48;;;;;;;17.30;3.65;;;11.30;76.50;;;;;;5046208;28;20032;-70
2022/01/31 11:52:14;;;;;;;22.55;4.72;;;11.20;77.30;;;;;;5047929;28;20075;-70
2022/01/31 11:54:49;;;;;;;19.35;4.15;;;11.20;78.20;;;;;;5051369;28;20027;-70
2022/01/31 11:57:17;;;;;;;16.88;4.60;;;11.30;78.60;;;;;;5033511;28;20029;-69
2022/01/31 11:59:43;;;;;;;22.33;5.18;;;11.30;78.60;;;;;;5043135;28;20017;-70
2022/01/31 12:02:14;;;;;;;21.48;5.32;;;11.40;78.40;;;;;;5046350;28;20039;-70
2022/01/31 12:04:44;;;;;;;21.45;5.45;;;11.40;78.70;;;;;;5033726;28;20026;-71
2022/01/31 12:07:41;;;;;;;18.95;4.53;;;11.30;78.50;;;;;;5033720;28;20032;-63
2022/01/31 12:10:31;;;;;;;21.23;4.40;;;11.40;78.10;;;;;;5035381;28;21623;-60
2022/01/31 12:13:02;;;;;;;19.30;4.28;;;11.40;77.60;;;;;;5043012;28;20060;-62
2022/01/31 12:23:59;;;;;;;21.75;4.25;;;11.30;77.50;;;;;;5042740;28;20041;-63
2022/01/31 12:26:27;;;;;;;30.52;5.95;;;11.30;77.70;;;;;;5036273;28;20021;-68
2022/01/31 12:28:58;;;;;;;20.98;5.05;;;11.40;78.10;;;;;;5033518;28;20117;-69
2022/01/31 12:31:24;;;;;;;19.75;4.85;;;11.40;78.20;;;;;;5033541;28;20036;-69
2022/01/31 12:33:49;;;;;;;26.70;5.70;;;11.50;79.10;;;;;;5040445;28;20025;-69
2022/01/31 12:36:34;;;;;;;26.25;5.63;;;11.50;76.70;;;;;;5033573;28;20045;-70
2022/01/31 12:39:00;;;;;;;21.83;4.65;;;11.60;77.00;;;;;;5035890;28;20025;-69
2022/01/31 12:41:33;;;;;;;27.30;4.90;;;11.60;76.60;;;;;;5047729;28;20039;-71
2022/01/31 12:44:42;;;;;;;23.75;5.45;;;11.60;76.40;;;;;;5029818;28;20390;-72
2022/01/31 12:47:17;;;;;;;24.65;4.90;;;11.60;75.70;;;;;;5037617;28;20071;-70
2022/01/31 12:50:03;;;;;;;25.45;5.13;;;11.60;76.00;;;;;;5043524;28;20160;-69
2022/01/31 12:52:35;;;;;;;23.45;5.13;;;11.60;76.10;;;;;;5046030;28;20363;-68
2022/01/31 12:55:11;;;;;;;25.42;5.28;;;11.60;75.40;;;;;;5034202;28;20448;-70
2022/01/31 12:57:53;;;;;;;33.30;6.07;;;11.60;75.70;;;;;;5034331;28;20022;-69
2022/01/31 13:00:41;;;;;;;24.48;4.95;;;11.60;76.40;;;;;;5040839;28;20021;-69
2022/01/31 13:03:08;;;;;;;30.38;6.07;;;11.60;76.40;;;;;;5043578;28;20706;-71
2022/01/31 13:05:36;;;;;;;22.65;5.55;;;11.60;76.20;;;;;;5064162;28;20121;-71
2022/01/31 13:08:26;;;;;;;31.98;6.60;;;11.60;76.50;;;;;;5056680;28;20052;-72
2022/01/31 13:10:53;;;;;;;23.98;5.75;;;11.60;76.30;;;;;;5045177;28;20022;-67
2022/01/31 13:13:32;;;;;;;29.27;7.20;;;11.60;75.80;;;;;;5051999;28;20154;-67
2022/01/31 13:16:10;;;;;;;29.40;7.03;;;11.60;75.60;;;;;;5052459;28;20025;-71
2022/01/31 13:18:36;;;;;;;24.52;5.57;;;11.60;75.30;;;;;;5051187;28;20493;-70
2022/01/31 13:21:05;;;;;;;27.13;5.28;;;11.70;77.40;;;;;;5050725;28;20026;-72
2022/01/31 13:23:35;;;;;;;24.08;4.97;;;11.80;72.70;;;;;;5052452;28;20141;-65